createdAt,value
2024-01-14T00:01:17.894Z,13.57
2024-01-14T00:03:46.241Z,13.57
2024-01-14T00:06:14.679Z,13.40
2024-01-14T00:08:44.304Z,13.47
2024-01-14T00:11:12.539Z,14.00
2024-01-14T00:13:40.685Z,13.13
2024-01-14T00:16:08.765Z,13.33
2024-01-14T00:18:36.819Z,12.53
2024-01-14T00:21:05.380Z,12.83
2024-01-14T00:23:33.391Z,11.87
2024-01-14T00:26:03.066Z,12.43
2024-01-14T00:28:31.146Z,13.00
2024-01-14T00:30:59.238Z,12.17
2024-01-14T00:33:27.325Z,12.67
2024-01-14T00:35:55.368Z,12.97
2024-01-14T00:38:23.471Z,11.77
2024-01-14T00:40:51.352Z,12.60
2024-01-14T00:43:20.859Z,12.53
2024-01-14T00:45:49.018Z,12.73
2024-01-14T00:48:17.177Z,12.07
2024-01-14T00:50:45.271Z,10.90
2024-01-14T00:53:13.249Z,11.73
2024-01-14T00:55:41.241Z,11.93
2024-01-14T00:58:09.105Z,12.90
2024-01-14T01:00:38.591Z,12.50
2024-01-14T01:03:06.925Z,12.57
2024-01-14T01:05:35.923Z,11.97
2024-01-14T01:08:04.135Z,11.40
2024-01-14T01:10:32.217Z,12.17
2024-01-14T01:13:00.173Z,11.80
2024-01-14T01:15:28.432Z,10.57
2024-01-14T01:17:58.136Z,10.17
2024-01-14T01:20:26.177Z,11.87
2024-01-14T01:22:54.118Z,11.47
2024-01-14T01:25:21.969Z,9.30
2024-01-14T01:27:49.910Z,9.30
2024-01-14T01:30:18.193Z,8.10
2024-01-14T01:32:46.497Z,7.93
2024-01-14T01:35:16.726Z,6.90
2024-01-14T01:37:44.926Z,5.37
2024-01-14T01:40:13.651Z,4.30
2024-01-14T01:42:41.570Z,3.90
2024-01-14T01:45:12.846Z,2.97
2024-01-14T01:47:42.116Z,3.03
2024-01-14T01:50:14.566Z,6.47
2024-01-14T01:52:44.193Z,8.73
2024-01-14T01:55:13.696Z,10.13
2024-01-14T01:57:41.670Z,10.90
2024-01-14T02:00:11.019Z,12.67
2024-01-14T02:02:42.573Z,10.77
2024-01-14T02:05:11.082Z,9.30
2024-01-14T02:07:40.537Z,8.97
2024-01-14T02:10:10.824Z,8.70
2024-01-14T02:12:38.809Z,10.73
2024-01-14T02:15:07.600Z,10.97
2024-01-14T02:17:35.625Z,11.77
2024-01-14T02:20:03.949Z,10.53
2024-01-14T02:22:35.039Z,11.97
2024-01-14T02:25:05.311Z,11.50
2024-01-14T02:27:36.551Z,12.37
2024-01-14T02:30:07.061Z,12.40
2024-01-14T02:32:38.739Z,12.03
2024-01-14T02:35:07.863Z,12.43
2024-01-14T02:37:35.836Z,12.57
2024-01-14T02:40:06.129Z,13.37
2024-01-14T02:42:34.261Z,13.43
2024-01-14T02:45:02.501Z,13.37
2024-01-14T02:47:30.504Z,12.77
2024-01-14T02:49:58.561Z,13.03
2024-01-14T02:52:26.576Z,13.03
2024-01-14T02:54:54.414Z,13.00
2024-01-14T02:57:23.990Z,12.43
2024-01-14T02:59:52.040Z,12.77
2024-01-14T03:02:20.154Z,12.30
2024-01-14T03:04:48.142Z,12.13
2024-01-14T03:07:16.176Z,11.93
2024-01-14T03:09:44.065Z,12.20
2024-01-14T03:12:12.064Z,12.23
2024-01-14T03:14:41.340Z,12.60
2024-01-14T03:17:09.289Z,12.17
2024-01-14T03:19:37.395Z,12.33
2024-01-14T03:22:05.446Z,11.57
2024-01-14T03:24:33.364Z,11.97
2024-01-14T03:27:01.410Z,12.13
2024-01-14T03:29:29.377Z,11.57
2024-01-14T03:31:58.633Z,10.73
2024-01-14T03:34:26.719Z,10.80
2024-01-14T03:36:54.616Z,10.50
2024-01-14T03:39:22.670Z,9.90
2024-01-14T03:41:51.468Z,10.43
2024-01-14T03:44:20.197Z,9.90
2024-01-14T03:46:48.047Z,11.63
2024-01-14T03:49:17.528Z,9.83
2024-01-14T03:51:45.456Z,10.97
2024-01-14T03:54:13.341Z,11.13
2024-01-14T03:56:41.223Z,11.77
2024-01-14T03:59:09.068Z,10.67
2024-01-14T04:01:36.867Z,11.23
2024-01-14T04:04:05.299Z,10.90
2024-01-14T04:06:34.730Z,10.37
2024-01-14T04:09:02.967Z,10.73
2024-01-14T04:11:31.365Z,11.20
2024-01-14T04:13:59.226Z,10.80
2024-01-14T04:16:27.108Z,11.40
2024-01-14T04:18:55.076Z,11.23
2024-01-14T04:21:23.973Z,10.10
2024-01-14T04:23:53.380Z,10.30
2024-01-14T04:26:22.409Z,10.40
2024-01-14T04:28:50.764Z,10.40
2024-01-14T04:31:19.358Z,12.60
2024-01-14T04:33:48.304Z,10.97
2024-01-14T04:36:17.200Z,13.10
2024-01-14T04:38:45.896Z,11.80
2024-01-14T04:41:15.209Z,11.33
2024-01-14T04:43:43.130Z,12.43
2024-01-14T04:46:11.858Z,11.77
2024-01-14T04:48:40.190Z,12.17
2024-01-14T04:51:08.337Z,12.57
2024-01-14T04:53:36.239Z,13.17
2024-01-14T04:56:08.655Z,13.47
2024-01-14T04:58:39.392Z,13.93
2024-01-14T05:01:07.395Z,12.57
2024-01-14T05:03:35.508Z,12.50
2024-01-14T05:06:04.166Z,12.63
2024-01-14T05:08:32.413Z,12.83
2024-01-14T05:11:00.884Z,13.30
2024-01-14T05:13:29.041Z,13.73
2024-01-14T05:15:58.237Z,12.80
2024-01-14T05:18:26.340Z,12.07
2024-01-14T05:20:54.859Z,12.33
2024-01-14T05:23:23.465Z,13.40
2024-01-14T05:25:51.357Z,12.90
2024-01-14T05:28:19.200Z,13.50
2024-01-14T05:30:49.002Z,12.37
2024-01-14T05:33:18.654Z,12.67
2024-01-14T05:35:46.833Z,12.03
2024-01-14T05:38:14.718Z,11.93
2024-01-14T05:40:42.708Z,11.37
2024-01-14T05:43:10.752Z,11.10
2024-01-14T05:45:38.668Z,11.07
2024-01-14T05:48:07.739Z,11.07
2024-01-14T05:50:37.084Z,11.10
2024-01-14T05:53:05.294Z,10.23
2024-01-14T05:55:33.263Z,9.87
2024-01-14T05:58:01.186Z,8.93
2024-01-14T06:00:29.200Z,9.30
2024-01-14T06:02:57.261Z,10.50
2024-01-14T06:05:25.278Z,9.60
2024-01-14T06:07:54.703Z,9.50
2024-01-14T06:10:22.624Z,9.93
2024-01-14T06:12:50.501Z,10.47
2024-01-14T06:15:18.462Z,10.83
2024-01-14T06:17:46.465Z,11.57
2024-01-14T06:20:14.370Z,12.20
2024-01-14T06:22:42.312Z,13.27
2024-01-14T06:25:11.897Z,12.17
2024-01-14T06:27:39.951Z,12.20
2024-01-14T06:30:09.510Z,11.83
2024-01-14T06:32:37.545Z,12.63
2024-01-14T06:35:06.151Z,12.30
2024-01-14T06:37:34.122Z,12.73
2024-01-14T06:40:02.216Z,11.90
2024-01-14T06:42:31.620Z,12.13
2024-01-14T06:44:59.642Z,12.10
2024-01-14T06:47:27.721Z,11.53
2024-01-14T06:50:03.511Z,10.47
2024-01-14T06:52:39.197Z,10.07
2024-01-14T06:55:07.773Z,10.20
2024-01-14T06:57:37.052Z,10.47
2024-01-14T07:00:06.966Z,10.83
2024-01-14T07:02:35.036Z,9.93
2024-01-14T07:05:04.215Z,10.90
2024-01-14T07:07:32.251Z,10.87
2024-01-14T07:10:00.208Z,11.97
2024-01-14T07:12:28.596Z,11.40
2024-01-14T07:14:58.206Z,11.60
2024-01-14T07:17:26.577Z,12.37
2024-01-14T07:20:14.540Z,12.57
2024-01-14T07:22:42.430Z,11.80
2024-01-14T07:25:11.622Z,11.13
2024-01-14T07:27:39.613Z,11.40
2024-01-14T07:30:10.141Z,11.07
2024-01-14T07:32:38.036Z,11.47
2024-01-14T07:35:06.671Z,13.03
2024-01-14T07:37:35.330Z,12.37
2024-01-14T07:40:03.735Z,12.97
2024-01-14T07:42:31.840Z,13.50
2024-01-14T07:44:59.882Z,12.33
2024-01-14T07:47:29.341Z,12.57
2024-01-14T07:49:57.269Z,12.67
2024-01-14T07:52:26.533Z,13.67
2024-01-14T07:54:54.535Z,13.17
2024-01-14T07:57:22.604Z,13.70
2024-01-14T07:59:50.593Z,12.53
2024-01-14T08:02:21.263Z,13.17
2024-01-14T08:04:50.685Z,13.07
2024-01-14T08:07:18.701Z,13.30
2024-01-14T08:09:47.139Z,14.93
2024-01-14T08:12:15.260Z,13.23
2024-01-14T08:14:43.271Z,12.77
2024-01-14T08:17:11.645Z,13.57
2024-01-14T08:19:39.676Z,13.43
2024-01-14T08:22:08.999Z,13.23
2024-01-14T08:24:37.086Z,12.57
2024-01-14T08:27:05.368Z,11.57
2024-01-14T08:29:33.295Z,11.67
2024-01-14T08:32:01.285Z,12.43
2024-01-14T08:34:29.550Z,11.13
2024-01-14T08:36:56.457Z,11.40
2024-01-14T08:39:25.856Z,10.87
2024-01-14T08:41:53.843Z,11.13
2024-01-14T08:44:26.899Z,11.43
2024-01-14T08:46:56.926Z,10.70
2024-01-14T08:49:27.565Z,11.50
2024-01-14T08:51:55.453Z,11.20
2024-01-14T08:54:23.565Z,10.33
2024-01-14T08:56:52.894Z,11.33
2024-01-14T08:59:21.069Z,13.70
2024-01-14T09:01:49.061Z,11.37
2024-01-14T09:04:23.215Z,12.33
2024-01-14T09:06:51.361Z,11.83
2024-01-14T09:09:19.458Z,12.37
2024-01-14T09:11:47.617Z,11.70
2024-01-14T09:14:17.001Z,11.00
2024-01-14T09:16:45.004Z,12.50
2024-01-14T09:19:13.972Z,11.07
2024-01-14T09:21:42.465Z,10.93
2024-01-14T09:24:11.834Z,12.47
2024-01-14T09:26:39.847Z,12.80
2024-01-14T09:29:07.839Z,11.67
2024-01-14T09:31:37.192Z,11.70
2024-01-14T09:34:05.565Z,12.27
2024-01-14T09:36:34.242Z,12.40
2024-01-14T09:39:02.595Z,12.70
2024-01-14T09:41:39.042Z,13.60
2024-01-14T09:44:08.892Z,12.07
2024-01-14T09:46:39.252Z,12.63
2024-01-14T09:49:07.620Z,12.87
2024-01-14T09:51:37.706Z,12.87
2024-01-14T09:54:06.896Z,11.77
2024-01-14T09:56:36.366Z,13.70
2024-01-14T09:59:05.130Z,13.67
2024-01-14T10:01:33.661Z,14.50
2024-01-14T10:04:03.812Z,14.23
2024-01-14T10:06:31.948Z,13.37
2024-01-14T10:09:00.715Z,14.53
2024-01-14T10:11:28.723Z,14.10
2024-01-14T10:13:57.655Z,13.80
2024-01-14T10:16:50.877Z,14.20
2024-01-14T10:19:15.024Z,14.40
2024-01-14T10:21:44.128Z,13.83
2024-01-14T10:24:12.808Z,13.43
2024-01-14T10:26:40.990Z,13.17
2024-01-14T10:29:09.372Z,13.80
2024-01-14T10:31:39.389Z,13.10
2024-01-14T10:34:07.725Z,13.63
2024-01-14T10:36:39.756Z,14.27
2024-01-14T10:39:12.107Z,14.17
2024-01-14T10:41:40.486Z,12.33
2024-01-14T10:44:09.083Z,13.07
2024-01-14T10:46:39.256Z,12.50
2024-01-14T10:49:09.140Z,13.67
2024-01-14T10:51:42.554Z,12.60
2024-01-14T10:54:17.621Z,13.10
2024-01-14T10:56:50.637Z,12.17
2024-01-14T10:59:24.584Z,12.07
2024-01-14T11:01:56.438Z,12.17
2024-01-14T11:04:25.108Z,13.60
2024-01-14T11:06:56.890Z,12.87
2024-01-14T11:09:25.057Z,13.03
2024-01-14T11:12:05.520Z,12.77
2024-01-14T11:14:39.482Z,13.33
2024-01-14T11:17:16.460Z,12.73
2024-01-14T11:19:45.862Z,13.70
2024-01-14T11:22:31.466Z,11.67
2024-01-14T11:25:04.950Z,12.80
2024-01-14T11:27:33.743Z,11.40
2024-01-14T11:30:02.062Z,12.70
2024-01-14T11:32:30.508Z,12.17
2024-01-14T11:35:02.057Z,12.67
2024-01-14T11:37:48.319Z,13.00
2024-01-14T11:40:30.577Z,11.93
2024-01-14T11:43:06.683Z,12.47
2024-01-14T11:45:39.385Z,11.27
2024-01-14T11:48:10.627Z,10.30
2024-01-14T11:50:39.994Z,10.40
2024-01-14T11:53:10.397Z,9.93
2024-01-14T11:55:39.054Z,9.50
2024-01-14T11:58:16.208Z,8.83
2024-01-14T12:00:45.254Z,8.77
2024-01-14T12:03:15.237Z,8.30
2024-01-14T12:05:44.637Z,8.60
2024-01-14T12:08:15.285Z,8.63
2024-01-14T12:10:43.510Z,6.80
2024-01-14T12:13:11.685Z,7.20
2024-01-14T12:15:41.596Z,7.60
2024-01-14T12:18:16.217Z,7.80
2024-01-14T12:20:44.474Z,7.90
2024-01-14T12:23:13.938Z,8.07
2024-01-14T12:25:41.824Z,7.20
2024-01-14T12:28:09.733Z,7.20
2024-01-14T12:30:38.341Z,5.53
2024-01-14T12:33:08.590Z,4.73
2024-01-14T12:35:38.699Z,4.00
2024-01-14T12:38:10.705Z,4.23
2024-01-14T12:40:40.262Z,5.00
2024-01-14T12:43:09.060Z,5.47
2024-01-14T12:45:37.511Z,5.57
2024-01-14T12:48:07.553Z,8.70
2024-01-14T12:50:38.357Z,10.53
2024-01-14T12:53:09.108Z,11.20
2024-01-14T12:55:37.127Z,12.23
2024-01-14T12:58:06.653Z,12.87
2024-01-14T13:00:35.755Z,11.97
2024-01-14T13:03:04.216Z,12.30
2024-01-14T13:05:32.181Z,12.07
2024-01-14T13:08:00.358Z,12.27
2024-01-14T13:10:28.632Z,12.03
2024-01-14T13:12:57.148Z,13.00
2024-01-14T13:15:26.813Z,12.90
2024-01-14T13:17:56.475Z,11.23
2024-01-14T13:20:24.459Z,13.17
2024-01-14T13:22:52.443Z,12.47
2024-01-14T13:25:20.556Z,13.30
2024-01-14T13:27:48.762Z,12.07
2024-01-14T13:30:18.574Z,12.63
2024-01-14T13:32:48.985Z,11.27
2024-01-14T13:35:17.375Z,10.50
2024-01-14T13:37:45.506Z,10.10
2024-01-14T13:40:14.416Z,9.03
2024-01-14T13:42:43.054Z,9.40
2024-01-14T13:45:11.482Z,8.63
2024-01-14T13:47:39.879Z,8.63
2024-01-14T13:50:10.639Z,8.17
2024-01-14T13:52:38.794Z,8.23
2024-01-14T13:55:08.117Z,7.53
2024-01-14T13:57:36.321Z,7.50
2024-01-14T14:00:07.293Z,6.97
2024-01-14T14:02:35.610Z,6.90
2024-01-14T14:05:08.784Z,6.50
2024-01-14T14:07:40.420Z,6.63
2024-01-14T14:10:10.598Z,7.30
2024-01-14T14:12:38.715Z,7.67
2024-01-14T14:15:07.979Z,7.63
2024-01-14T14:17:36.214Z,7.67
2024-01-14T14:20:04.869Z,7.77
2024-01-14T14:22:33.996Z,8.63
2024-01-14T14:25:04.508Z,7.83
2024-01-14T14:27:32.737Z,8.40
2024-01-14T14:30:02.940Z,9.70
2024-01-14T14:32:31.007Z,9.27
2024-01-14T14:34:59.278Z,9.80
2024-01-14T14:37:27.902Z,9.60
2024-01-14T14:39:55.935Z,8.27
2024-01-14T14:42:25.318Z,8.47
2024-01-14T14:44:53.502Z,8.67
2024-01-14T14:47:21.879Z,6.57
2024-01-14T14:49:50.287Z,5.77
2024-01-14T14:52:18.544Z,4.53
2024-01-14T14:54:46.894Z,3.87
2024-01-14T14:57:15.129Z,2.67
2024-01-14T14:59:44.477Z,1.80
2024-01-14T15:02:12.444Z,2.27
2024-01-14T15:04:40.422Z,1.23
2024-01-14T15:07:08.462Z,1.40
2024-01-14T15:09:36.716Z,1.23
2024-01-14T15:12:04.956Z,0.90
2024-01-14T15:14:33.032Z,0.73
2024-01-14T15:17:02.741Z,0.73
2024-01-14T15:19:30.717Z,0.77
2024-01-14T15:22:02.589Z,0.63
2024-01-14T15:24:31.285Z,0.70
2024-01-14T15:27:01.671Z,0.60
2024-01-14T15:29:29.558Z,0.80
2024-01-14T15:31:57.714Z,0.90
2024-01-14T15:34:27.779Z,0.90
2024-01-14T15:36:55.805Z,0.97
2024-01-14T15:39:23.825Z,1.00
2024-01-14T15:41:52.028Z,1.30
2024-01-14T15:44:19.984Z,0.60
2024-01-14T15:46:47.997Z,0.80
2024-01-14T15:49:16.618Z,0.87
2024-01-14T15:51:46.076Z,1.07
2024-01-14T15:54:14.132Z,0.60
2024-01-14T15:56:42.269Z,0.30
2024-01-14T15:59:10.384Z,0.70
2024-01-14T16:01:38.760Z,0.83
2024-01-14T16:04:07.104Z,0.40
2024-01-14T16:06:35.210Z,0.60
2024-01-14T16:09:05.527Z,0.60
2024-01-14T16:11:33.483Z,0.70
2024-01-14T16:14:01.383Z,0.70
2024-01-14T16:16:31.020Z,0.70
2024-01-14T16:18:59.194Z,0.60
2024-01-14T16:21:27.967Z,0.60
2024-01-14T16:23:57.076Z,0.60
2024-01-14T16:26:27.408Z,0.90
2024-01-14T16:29:18.105Z,1.27
2024-01-14T16:31:46.494Z,0.70
2024-01-14T16:34:14.696Z,0.70
2024-01-14T16:36:44.231Z,1.43
2024-01-14T16:39:13.509Z,1.13
2024-01-14T16:41:42.846Z,1.63
2024-01-14T16:44:12.057Z,1.40
2024-01-14T16:46:42.154Z,0.70
2024-01-14T16:49:10.929Z,0.60
2024-01-14T16:51:39.550Z,0.90
2024-01-14T16:54:09.297Z,1.00
2024-01-14T16:56:39.508Z,1.10
2024-01-14T16:59:09.534Z,0.60
2024-01-14T17:01:39.768Z,0.70
2024-01-14T17:04:07.940Z,0.60
2024-01-14T17:06:36.481Z,0.77
2024-01-14T17:09:05.633Z,0.70
2024-01-14T17:11:33.685Z,0.83
2024-01-14T17:14:01.850Z,0.80
2024-01-14T17:16:31.329Z,0.97
2024-01-14T17:19:01.022Z,0.63
2024-01-14T17:21:30.027Z,0.50
2024-01-14T17:23:58.498Z,0.87
2024-01-14T17:26:26.529Z,0.83
2024-01-14T17:28:54.486Z,0.73
2024-01-14T17:31:22.563Z,0.73
2024-01-14T17:33:53.819Z,0.93
2024-01-14T17:36:23.529Z,0.90
2024-01-14T17:38:51.938Z,0.97
2024-01-14T17:41:20.505Z,0.70
2024-01-14T17:43:48.562Z,2.10
2024-01-14T17:46:19.792Z,1.53
2024-01-14T17:48:52.700Z,1.60
2024-01-14T17:51:22.696Z,0.70
2024-01-14T17:53:51.764Z,1.00
2024-01-14T17:56:20.723Z,1.00
2024-01-14T17:58:48.662Z,0.90
2024-01-14T18:01:16.795Z,1.70
2024-01-14T18:03:46.106Z,1.40
2024-01-14T18:06:16.025Z,1.17
2024-01-14T18:08:44.159Z,1.30
2024-01-14T18:11:12.118Z,1.10
2024-01-14T18:13:40.211Z,1.33
2024-01-14T18:16:08.236Z,1.30
2024-01-14T18:18:39.479Z,0.90
2024-01-14T18:21:13.384Z,0.80
2024-01-14T18:23:42.885Z,0.70
2024-01-14T18:26:10.945Z,0.53
2024-01-14T18:28:38.833Z,1.30
2024-01-14T18:31:07.000Z,1.10
2024-01-14T18:33:35.192Z,0.57
2024-01-14T18:36:03.406Z,0.80
2024-01-14T18:38:31.602Z,0.67
2024-01-14T18:41:00.928Z,0.90
2024-01-14T18:43:29.491Z,0.77
2024-01-14T18:45:57.478Z,0.67
2024-01-14T18:48:25.612Z,0.73
2024-01-14T18:50:54.091Z,1.47
2024-01-14T18:53:22.111Z,1.07
2024-01-14T18:55:51.130Z,0.80
2024-01-14T18:58:24.452Z,1.67
2024-01-14T19:00:53.948Z,1.50
2024-01-14T19:03:22.344Z,1.30
2024-01-14T19:05:50.838Z,3.00
2024-01-14T19:08:18.957Z,1.50
2024-01-14T19:10:47.052Z,2.83
2024-01-14T19:13:15.055Z,1.80
2024-01-14T19:15:44.641Z,3.00
2024-01-14T19:18:13.031Z,2.10
2024-01-14T19:20:41.218Z,1.30
2024-01-14T19:23:09.395Z,1.50
2024-01-14T19:25:37.309Z,1.20
2024-01-14T19:28:05.849Z,1.20
2024-01-14T19:30:36.717Z,1.70
2024-01-14T19:33:06.926Z,2.37
2024-01-14T19:35:35.407Z,5.77
2024-01-14T19:38:03.641Z,2.03
2024-01-14T19:40:31.645Z,1.70
2024-01-14T19:42:59.667Z,1.43
2024-01-14T19:45:27.797Z,0.90
2024-01-14T19:47:55.875Z,1.50
2024-01-14T19:50:25.540Z,1.57
2024-01-14T19:52:53.492Z,0.50
2024-01-14T19:55:21.626Z,0.60
2024-01-14T19:57:49.794Z,0.30
2024-01-14T20:00:20.160Z,0.37
2024-01-14T20:02:48.274Z,0.53
2024-01-14T20:05:16.348Z,0.77
2024-01-14T20:07:46.155Z,0.60
2024-01-14T20:10:14.537Z,0.60
2024-01-14T20:12:42.554Z,0.70
2024-01-14T20:15:12.291Z,0.43
2024-01-14T20:17:41.978Z,0.70
2024-01-14T20:20:11.425Z,0.70
2024-01-14T20:22:39.384Z,0.70
2024-01-14T20:25:09.854Z,0.73
2024-01-14T20:27:37.856Z,0.77
2024-01-14T20:30:06.783Z,0.77
2024-01-14T20:32:35.531Z,0.77
2024-01-14T20:35:07.103Z,0.60
2024-01-14T20:37:36.635Z,0.40
2024-01-14T20:40:05.304Z,0.50
2024-01-14T20:42:34.794Z,0.67
2024-01-14T20:45:03.249Z,0.60
2024-01-14T20:47:31.260Z,0.77
2024-01-14T20:49:59.210Z,0.77
2024-01-14T20:52:27.965Z,0.47
2024-01-14T20:54:55.873Z,0.53
2024-01-14T20:57:24.154Z,0.40
2024-01-14T20:59:53.669Z,1.33
2024-01-14T21:02:21.872Z,0.80
2024-01-14T21:04:51.933Z,0.70
2024-01-14T21:07:23.387Z,0.60
2024-01-14T21:09:51.704Z,0.50
2024-01-14T21:12:19.820Z,1.10
2024-01-14T21:14:47.876Z,0.73
2024-01-14T21:17:17.174Z,0.77
2024-01-14T21:19:45.235Z,0.80
2024-01-14T21:22:13.302Z,1.03
2024-01-14T21:24:41.706Z,1.00
2024-01-14T21:27:09.718Z,0.73
2024-01-14T21:29:43.578Z,0.43
2024-01-14T21:32:11.755Z,0.63
2024-01-14T21:34:41.177Z,0.57
2024-01-14T21:37:09.229Z,0.50
2024-01-14T21:39:38.281Z,0.70
2024-01-14T21:42:06.684Z,0.47
2024-01-14T21:44:33.662Z,0.60
2024-01-14T21:47:01.553Z,0.50
2024-01-14T21:49:30.718Z,0.80
2024-01-14T21:52:01.472Z,0.50
2024-01-14T21:54:30.787Z,0.60
2024-01-14T21:56:58.886Z,0.50
2024-01-14T21:59:26.994Z,0.40
2024-01-14T22:01:55.231Z,0.67
2024-01-14T22:04:23.190Z,0.60
2024-01-14T22:06:51.218Z,0.50
2024-01-14T22:09:20.859Z,0.97
2024-01-14T22:11:49.045Z,0.53
2024-01-14T22:14:17.021Z,0.73
2024-01-14T22:16:44.904Z,0.30
2024-01-14T22:19:13.034Z,0.73
2024-01-14T22:21:42.145Z,0.33
2024-01-14T22:24:11.573Z,0.40
2024-01-14T22:26:41.207Z,0.77
2024-01-14T22:29:24.761Z,1.07
2024-01-14T22:31:54.758Z,0.70
2024-01-14T22:34:23.144Z,0.57
2024-01-14T22:36:51.903Z,0.77
2024-01-14T22:39:20.408Z,0.80
2024-01-14T22:41:49.707Z,1.03
2024-01-14T22:44:17.637Z,0.53
2024-01-14T22:46:45.566Z,0.80
2024-01-14T22:49:13.699Z,0.70
2024-01-14T22:51:42.794Z,0.80
2024-01-14T22:54:11.095Z,1.10
2024-01-14T22:56:39.071Z,1.00
2024-01-14T22:59:09.515Z,1.03
2024-01-14T23:01:38.922Z,1.17
2024-01-14T23:04:07.041Z,1.00
2024-01-14T23:06:35.379Z,1.00
2024-01-14T23:09:03.526Z,0.87
2024-01-14T23:11:31.465Z,1.30
2024-01-14T23:13:59.341Z,1.10
2024-01-14T23:16:28.577Z,0.83
2024-01-14T23:18:56.543Z,0.90
2024-01-14T23:21:24.657Z,0.70
2024-01-14T23:23:53.402Z,0.50
2024-01-14T23:26:21.327Z,0.97
2024-01-14T23:28:49.268Z,0.93
2024-01-14T23:31:17.310Z,0.80
2024-01-14T23:33:46.756Z,0.73
2024-01-14T23:36:17.066Z,1.03
2024-01-14T23:38:45.587Z,1.00
2024-01-14T23:41:13.593Z,0.70
2024-01-14T23:43:41.463Z,0.70
2024-01-14T23:46:09.799Z,0.87
2024-01-14T23:48:37.744Z,0.80
2024-01-14T23:51:07.323Z,0.60
2024-01-14T23:53:35.265Z,0.80
2024-01-14T23:56:05.166Z,0.97
2024-01-14T23:58:33.155Z,1.23
